createdAt,value
2018-12-01T00:00:21.078Z,12.53
2018-12-01T00:02:49.817Z,12.73
2018-12-01T00:05:18.514Z,11.53
2018-12-01T00:07:47.264Z,11.67
2018-12-01T00:10:15.964Z,10.57
2018-12-01T00:12:44.969Z,11.10
2018-12-01T00:15:16.009Z,11.07
2018-12-01T00:17:45.243Z,11.23
2018-12-01T00:20:18.195Z,10.47
2018-12-01T00:22:46.812Z,9.30
2018-12-01T00:25:15.408Z,9.43
2018-12-01T00:27:44.024Z,11.33
2018-12-01T00:30:14.870Z,10.20
2018-12-01T00:32:43.994Z,10.33
2018-12-01T00:35:13.322Z,11.67
2018-12-01T00:37:41.948Z,11.73
2018-12-01T00:40:14.770Z,10.17
2018-12-01T00:42:43.526Z,10.70
2018-12-01T00:45:13.276Z,11.00
2018-12-01T00:47:42.188Z,12.23
2018-12-01T00:50:11.886Z,12.43
2018-12-01T00:52:40.667Z,12.10
2018-12-01T00:55:10.889Z,12.83
2018-12-01T00:57:39.540Z,13.23
2018-12-01T01:00:15.240Z,13.90
2018-12-01T01:02:48.148Z,14.40
2018-12-01T01:05:16.796Z,13.67
2018-12-01T01:07:45.536Z,14.60
2018-12-01T01:10:14.120Z,14.80
2018-12-01T01:12:42.857Z,14.97
2018-12-01T01:15:11.519Z,14.10
2018-12-01T01:17:40.167Z,14.23
2018-12-01T01:20:11.282Z,13.47
2018-12-01T01:22:40.804Z,13.90
2018-12-01T01:25:09.653Z,13.33
2018-12-01T01:27:38.311Z,13.33
2018-12-01T01:30:14.657Z,13.67
2018-12-01T01:32:43.357Z,12.67
2018-12-01T01:35:11.997Z,13.43
2018-12-01T01:37:41.317Z,14.17
2018-12-01T01:40:17.204Z,13.60
2018-12-01T01:42:45.850Z,13.43
2018-12-01T01:45:16.545Z,14.47
2018-12-01T01:47:45.274Z,13.83
2018-12-01T01:50:15.876Z,13.57
2018-12-01T01:52:44.512Z,13.53
2018-12-01T01:55:13.270Z,13.20
2018-12-01T01:57:42.089Z,13.67
2018-12-01T02:00:14.237Z,12.33
2018-12-01T02:02:44.139Z,12.77
2018-12-01T02:05:12.730Z,13.30
2018-12-01T02:07:41.372Z,13.53
2018-12-01T02:10:10.709Z,13.93
2018-12-01T02:12:39.371Z,12.50
2018-12-01T02:15:08.929Z,11.67
2018-12-01T02:17:37.561Z,12.80
2018-12-01T02:20:12.495Z,12.97
2018-12-01T02:22:41.164Z,12.23
2018-12-01T02:25:15.704Z,13.00
2018-12-01T02:27:44.385Z,12.40
2018-12-01T02:30:16.009Z,12.77
2018-12-01T02:32:44.632Z,13.20
2018-12-01T02:35:17.340Z,13.47
2018-12-01T02:37:45.991Z,13.30
2018-12-01T02:40:14.669Z,13.93
2018-12-01T02:42:43.763Z,15.63
2018-12-01T02:45:23.425Z,15.17
2018-12-01T02:47:52.053Z,16.80
2018-12-01T02:50:24.255Z,14.30
2018-12-01T02:52:57.815Z,14.27
2018-12-01T02:55:26.436Z,14.87
2018-12-01T02:57:55.215Z,14.37
2018-12-01T03:00:23.875Z,13.83
2018-12-01T03:02:52.622Z,14.23
2018-12-01T03:05:22.844Z,15.40
2018-12-01T03:07:52.145Z,15.27
2018-12-01T03:10:20.734Z,15.83
2018-12-01T03:12:50.231Z,16.83
2018-12-01T03:15:19.494Z,16.07
2018-12-01T03:17:48.914Z,17.43
2018-12-01T03:20:18.296Z,16.17
2018-12-01T03:22:47.010Z,16.40
2018-12-01T03:25:20.249Z,16.93
2018-12-01T03:27:49.832Z,17.07
2018-12-01T03:30:20.484Z,16.30
2018-12-01T03:32:50.830Z,17.40
2018-12-01T03:35:19.998Z,17.10
2018-12-01T03:37:52.060Z,16.63
2018-12-01T03:40:21.575Z,16.57
2018-12-01T03:42:50.899Z,18.27
2018-12-01T03:45:20.457Z,17.23
2018-12-01T03:47:49.103Z,17.07
2018-12-01T03:50:20.483Z,17.60
2018-12-01T03:52:51.652Z,16.23
2018-12-01T03:55:31.162Z,16.23
2018-12-01T03:57:59.993Z,17.17
2018-12-01T04:00:33.342Z,17.73
2018-12-01T04:03:02.653Z,16.60
2018-12-01T04:05:31.510Z,17.60
2018-12-01T04:08:00.272Z,16.53
2018-12-01T04:10:28.853Z,16.90
2018-12-01T04:12:59.962Z,17.40
2018-12-01T04:15:28.640Z,17.87
2018-12-01T04:17:57.231Z,18.70
2018-12-01T04:20:25.792Z,17.30
2018-12-01T04:22:54.367Z,18.43
2018-12-01T04:25:23.109Z,17.13
2018-12-01T04:27:51.719Z,17.87
2018-12-01T04:30:21.559Z,18.20
2018-12-01T04:32:50.131Z,16.80
2018-12-01T04:35:20.479Z,17.40
2018-12-01T04:37:50.868Z,16.33
2018-12-01T04:40:19.491Z,14.60
2018-12-01T04:42:48.642Z,14.83
2018-12-01T04:45:17.757Z,13.63
2018-12-01T04:47:46.476Z,15.33
2018-12-01T04:50:16.947Z,14.00
2018-12-01T04:52:46.415Z,13.43
2018-12-01T04:55:17.158Z,13.03
2018-12-01T04:57:45.751Z,13.27
2018-12-01T05:00:19.205Z,13.07
2018-12-01T05:02:47.844Z,12.20
2018-12-01T05:05:18.683Z,14.50
2018-12-01T05:07:47.967Z,13.67
2018-12-01T05:10:17.355Z,13.57
2018-12-01T05:12:45.959Z,13.83
2018-12-01T05:15:15.645Z,12.60
2018-12-01T05:17:44.463Z,13.00
2018-12-01T05:20:18.292Z,13.37
2018-12-01T05:22:47.024Z,14.00
2018-12-01T05:25:15.595Z,13.67
2018-12-01T05:27:44.914Z,13.60
2018-12-01T05:30:13.545Z,13.77
2018-12-01T05:32:42.121Z,13.27
2018-12-01T05:35:18.855Z,12.43
2018-12-01T05:37:47.455Z,12.43
2018-12-01T05:40:16.079Z,12.50
2018-12-01T05:42:44.827Z,13.47
2018-12-01T05:45:22.541Z,13.50
2018-12-01T05:47:51.780Z,13.60
2018-12-01T05:50:22.832Z,14.10
2018-12-01T05:52:56.270Z,15.57
2018-12-01T05:55:25.091Z,14.20
2018-12-01T05:57:53.706Z,14.03
2018-12-01T06:00:22.436Z,14.50
2018-12-01T06:02:51.032Z,15.17
2018-12-01T06:05:19.702Z,13.93
2018-12-01T06:07:48.339Z,14.27
2018-12-01T06:10:20.220Z,13.93
2018-12-01T06:12:49.716Z,15.13
2018-12-01T06:15:18.879Z,15.77
2018-12-01T06:17:47.561Z,16.10
2018-12-01T06:20:19.518Z,16.43
2018-12-01T06:22:48.137Z,16.40
2018-12-01T06:25:17.844Z,16.90
2018-12-01T06:27:46.487Z,16.07
2018-12-01T06:30:16.950Z,17.30
2018-12-01T06:32:46.125Z,17.40
2018-12-01T06:35:14.802Z,16.20
2018-12-01T06:37:43.428Z,15.37
2018-12-01T06:40:13.413Z,17.03
2018-12-01T06:42:42.052Z,15.97
2018-12-01T06:45:13.407Z,16.10
2018-12-01T06:47:42.154Z,16.57
2018-12-01T06:50:23.222Z,15.80
2018-12-01T06:53:05.731Z,16.77
2018-12-01T06:55:48.519Z,17.03
2018-12-01T06:58:24.341Z,17.67
2018-12-01T07:00:56.274Z,17.37
2018-12-01T07:03:25.144Z,17.13
2018-12-01T07:05:54.205Z,17.03
2018-12-01T07:08:23.600Z,16.57
2018-12-01T07:10:52.260Z,17.10
2018-12-01T07:13:22.792Z,16.50
2018-12-01T07:15:51.852Z,15.70
2018-12-01T07:18:31.738Z,15.90
2018-12-01T07:21:00.505Z,15.70
2018-12-01T07:23:29.151Z,15.00
2018-12-01T07:25:57.846Z,15.77
2018-12-01T07:28:26.536Z,14.23
2018-12-01T07:30:57.978Z,15.63
2018-12-01T07:33:26.566Z,14.00
2018-12-01T07:35:56.284Z,13.87
2018-12-01T07:38:24.971Z,13.87
2018-12-01T07:40:54.536Z,14.40
2018-12-01T07:43:23.196Z,13.40
2018-12-01T07:45:51.832Z,13.20
2018-12-01T07:48:20.511Z,14.20
2018-12-01T07:50:49.195Z,14.30
2018-12-01T07:53:17.916Z,12.97
2018-12-01T07:55:46.541Z,13.17
2018-12-01T07:58:15.182Z,12.80
2018-12-01T08:00:43.755Z,14.03
2018-12-01T08:03:12.523Z,13.53
2018-12-01T08:05:41.140Z,12.80
2018-12-01T08:08:09.888Z,13.63
2018-12-01T08:10:38.694Z,13.90
2018-12-01T08:13:07.352Z,13.57
2018-12-01T08:15:36.023Z,13.07
2018-12-01T08:18:05.257Z,13.77
2018-12-01T08:20:33.877Z,14.13
2018-12-01T08:23:02.569Z,13.30
2018-12-01T08:25:31.201Z,13.73
2018-12-01T08:27:59.961Z,14.10
2018-12-01T08:30:32.138Z,13.03
2018-12-01T08:33:00.841Z,13.20
2018-12-01T08:35:30.320Z,13.37
2018-12-01T08:38:00.089Z,12.30
2018-12-01T08:40:30.600Z,14.10
2018-12-01T08:42:59.263Z,12.00
2018-12-01T08:45:28.449Z,12.20
2018-12-01T08:47:56.663Z,11.60
2018-12-01T08:50:27.638Z,11.50
2018-12-01T08:52:56.383Z,11.47
2018-12-01T08:55:25.325Z,11.47
2018-12-01T08:57:54.501Z,12.50
2018-12-01T09:00:25.410Z,11.10
2018-12-01T09:02:58.145Z,13.80
2018-12-01T09:05:26.784Z,11.70
2018-12-01T09:07:55.399Z,12.80
2018-12-01T09:10:24.088Z,12.47
2018-12-01T09:12:52.828Z,13.17
2018-12-01T09:15:21.480Z,13.30
2018-12-01T09:17:50.108Z,13.50
2018-12-01T09:20:18.737Z,12.87
2018-12-01T09:22:47.500Z,12.17
2018-12-01T09:25:18.100Z,12.10
2018-12-01T09:27:47.116Z,12.23
2018-12-01T09:30:18.208Z,12.03
2018-12-01T09:32:47.021Z,11.73
2018-12-01T09:35:15.686Z,10.80
2018-12-01T09:37:44.365Z,10.80
2018-12-01T09:40:14.978Z,12.80
2018-12-01T09:42:43.707Z,10.63
2018-12-01T09:45:14.562Z,11.40
2018-12-01T09:47:44.153Z,10.87
2018-12-01T09:50:13.734Z,11.20
2018-12-01T09:52:43.065Z,11.70
2018-12-01T09:55:15.127Z,10.87
2018-12-01T09:57:45.181Z,10.67
2018-12-01T10:00:19.156Z,12.03
2018-12-01T10:02:48.157Z,10.67
2018-12-01T10:05:18.079Z,11.30
2018-12-01T10:07:47.049Z,11.47
2018-12-01T10:10:17.937Z,11.67
2018-12-01T10:12:47.928Z,11.83
2018-12-01T10:15:19.203Z,11.30
2018-12-01T10:17:48.381Z,11.37
2018-12-01T10:20:33.822Z,11.53
2018-12-01T10:23:04.610Z,11.07
2018-12-01T10:25:33.370Z,10.90
2018-12-01T10:28:02.145Z,11.37
2018-12-01T10:30:31.041Z,10.50
2018-12-01T10:33:00.213Z,14.00
2018-12-01T10:35:28.897Z,10.80
2018-12-01T10:38:09.288Z,11.20
2018-12-01T10:40:38.886Z,11.23
2018-12-01T10:43:08.060Z,11.03
2018-12-01T10:45:36.999Z,10.20
2018-12-01T10:48:07.118Z,11.83
2018-12-01T10:50:36.876Z,10.70
2018-12-01T10:53:06.124Z,11.93
2018-12-01T10:55:35.322Z,12.43
2018-12-01T10:58:11.680Z,12.17
2018-12-01T11:01:44.450Z,13.20
2018-12-01T11:04:18.375Z,13.37
2018-12-01T11:06:47.064Z,12.40
2018-12-01T11:09:16.490Z,13.37
2018-12-01T11:11:45.223Z,12.70
2018-12-01T11:14:13.959Z,13.53
2018-12-01T11:16:42.715Z,13.53
2018-12-01T11:19:12.035Z,12.33
2018-12-01T11:21:40.906Z,13.87
2018-12-01T11:24:09.622Z,13.23
2018-12-01T11:26:38.364Z,13.17
2018-12-01T11:29:07.173Z,12.17
2018-12-01T11:31:35.809Z,10.77
2018-12-01T11:34:05.383Z,11.43
2018-12-01T11:36:34.105Z,10.23
2018-12-01T11:39:02.814Z,11.50
2018-12-01T11:41:32.726Z,11.43
2018-12-01T11:44:01.378Z,8.73
2018-12-01T11:46:30.117Z,9.40
2018-12-01T11:48:59.419Z,9.73
2018-12-01T11:51:28.135Z,9.20
2018-12-01T11:53:57.235Z,8.77
2018-12-01T11:56:25.954Z,9.30
2018-12-01T11:58:54.620Z,10.37
2018-12-01T12:01:23.310Z,9.57
2018-12-01T12:03:51.981Z,9.40
2018-12-01T12:06:20.651Z,9.07
2018-12-01T12:08:49.420Z,9.93
2018-12-01T12:11:18.397Z,10.13
2018-12-01T12:13:47.136Z,9.83
2018-12-01T12:16:15.965Z,10.00
2018-12-01T12:18:44.650Z,9.87
2018-12-01T12:21:15.254Z,9.87
2018-12-01T12:23:43.895Z,9.27
2018-12-01T12:26:12.632Z,10.13
2018-12-01T12:28:41.259Z,9.03
2018-12-01T12:31:10.079Z,9.80
2018-12-01T12:33:38.808Z,8.90
2018-12-01T12:36:07.449Z,8.40
2018-12-01T12:38:36.234Z,9.13
2018-12-01T12:41:05.377Z,9.17
2018-12-01T12:43:34.091Z,8.97
2018-12-01T12:46:03.497Z,8.00
2018-12-01T12:48:32.207Z,8.63
2018-12-01T12:51:00.886Z,8.87
2018-12-01T12:53:29.627Z,9.93
2018-12-01T12:55:58.303Z,9.57
2018-12-01T12:58:28.949Z,15.80
2018-12-01T13:00:58.191Z,10.43
2018-12-01T13:03:26.933Z,9.67
2018-12-01T13:05:55.645Z,9.97
2018-12-01T13:08:24.396Z,10.40
2018-12-01T13:10:53.222Z,11.03
2018-12-01T13:13:23.022Z,11.57
2018-12-01T13:15:51.779Z,11.80
2018-12-01T13:18:20.586Z,11.87
2018-12-01T13:20:49.464Z,11.80
2018-12-01T13:23:18.143Z,11.60
2018-12-01T13:25:46.808Z,12.27
2018-12-01T13:28:23.432Z,12.47
2018-12-01T13:30:55.932Z,12.53
2018-12-01T13:33:25.280Z,13.00
2018-12-01T13:35:54.121Z,12.90
2018-12-01T13:38:23.036Z,12.83
2018-12-01T13:40:51.854Z,12.17
2018-12-01T13:43:20.585Z,12.90
2018-12-01T13:45:51.189Z,11.67
2018-12-01T13:48:20.061Z,13.07
2018-12-01T13:50:48.916Z,11.77
2018-12-01T13:53:18.588Z,12.63
2018-12-01T13:55:48.328Z,13.17
2018-12-01T13:58:17.078Z,12.97
2018-12-01T14:00:45.896Z,13.63
2018-12-01T14:03:14.967Z,14.30
2018-12-01T14:05:43.684Z,13.83
2018-12-01T14:08:12.569Z,14.07
2018-12-01T14:10:43.097Z,14.53
2018-12-01T14:13:13.113Z,14.83
2018-12-01T14:15:41.960Z,15.23
2018-12-01T14:18:10.729Z,14.57
2018-12-01T14:20:39.749Z,14.90
2018-12-01T14:23:08.570Z,16.10
2018-12-01T14:25:37.356Z,15.43
2018-12-01T14:28:07.851Z,15.80
2018-12-01T14:30:36.550Z,16.40
2018-12-01T14:33:05.550Z,16.97
2018-12-01T14:35:35.846Z,14.73
2018-12-01T14:38:11.957Z,16.87
2018-12-01T14:40:41.833Z,15.27
2018-12-01T14:43:10.520Z,16.63
2018-12-01T14:45:39.338Z,16.87
2018-12-01T14:48:08.498Z,15.57
2018-12-01T14:50:37.214Z,16.27
2018-12-01T14:53:08.024Z,15.07
2018-12-01T14:55:36.868Z,16.87
2018-12-01T14:58:06.319Z,15.77
2018-12-01T15:00:35.208Z,15.40
2018-12-01T15:03:03.943Z,15.10
2018-12-01T15:05:32.643Z,14.53
2018-12-01T15:08:01.369Z,15.50
2018-12-01T15:10:31.113Z,13.80
2018-12-01T15:13:02.375Z,14.57
2018-12-01T15:15:31.131Z,15.33
2018-12-01T15:17:59.827Z,14.80
2018-12-01T15:20:28.630Z,15.30
2018-12-01T15:22:58.526Z,16.60
2018-12-01T15:25:28.242Z,14.07
2018-12-01T15:27:57.244Z,14.93
2018-12-01T15:30:27.007Z,13.93
2018-12-01T15:33:05.030Z,14.33
2018-12-01T15:35:33.748Z,14.43
2018-12-01T15:38:02.527Z,13.40
2018-12-01T15:40:31.320Z,13.80
2018-12-01T15:43:00.197Z,13.23
2018-12-01T15:45:29.914Z,12.50
2018-12-01T15:47:58.819Z,12.77
2018-12-01T15:50:27.646Z,12.27
2018-12-01T15:52:57.933Z,12.53
2018-12-01T15:55:26.589Z,12.63
2018-12-01T15:57:55.416Z,11.90
2018-12-01T16:00:27.173Z,11.83
2018-12-01T16:02:55.849Z,13.23
2018-12-01T16:05:25.035Z,12.93
2018-12-01T16:07:55.760Z,13.37
2018-12-01T16:10:25.380Z,13.43
2018-12-01T16:12:58.707Z,14.07
2018-12-01T16:15:30.899Z,14.43
2018-12-01T16:17:59.989Z,14.57
2018-12-01T16:20:29.960Z,15.00
2018-12-01T16:23:00.741Z,14.77
2018-12-01T16:25:29.456Z,16.70
2018-12-01T16:27:58.231Z,15.27
2018-12-01T16:30:28.779Z,15.50
2018-12-01T16:33:00.023Z,16.03
2018-12-01T16:35:28.887Z,15.80
2018-12-01T16:37:58.074Z,15.67
2018-12-01T16:40:39.895Z,16.70
2018-12-01T16:43:10.648Z,16.20
2018-12-01T16:45:39.640Z,16.40
2018-12-01T16:48:08.398Z,17.30
2018-12-01T16:50:37.137Z,17.07
2018-12-01T16:53:07.653Z,17.47
2018-12-01T16:55:36.553Z,16.30
2018-12-01T16:58:05.479Z,16.47
2018-12-01T17:00:34.209Z,16.07
2018-12-01T17:03:02.982Z,16.40
2018-12-01T17:05:33.547Z,16.83
2018-12-01T17:08:02.339Z,16.10
2018-12-01T17:10:31.059Z,15.87
2018-12-01T17:12:59.849Z,15.53
2018-12-01T17:15:29.121Z,15.53
2018-12-01T17:17:57.804Z,14.90
2018-12-01T17:20:26.494Z,15.03
2018-12-01T17:22:58.334Z,16.07
2018-12-01T17:25:27.098Z,16.03
2018-12-01T17:27:57.052Z,16.43
2018-12-01T17:30:28.575Z,15.83
2018-12-01T17:32:58.474Z,16.00
2018-12-01T17:35:28.848Z,16.03
2018-12-01T17:38:00.003Z,15.80
2018-12-01T17:40:41.516Z,16.07
2018-12-01T17:43:11.632Z,15.67
2018-12-01T17:45:40.314Z,15.83
2018-12-01T17:48:09.299Z,15.83
2018-12-01T17:50:37.960Z,15.50
2018-12-01T17:53:10.308Z,16.67
2018-12-01T17:55:35.870Z,16.67
2018-12-01T17:58:06.403Z,17.40
2018-12-01T18:00:35.099Z,15.70
2018-12-01T18:03:03.769Z,16.37
2018-12-01T18:05:34.369Z,18.13
2018-12-01T18:08:03.306Z,16.97
2018-12-01T18:10:32.001Z,16.80
2018-12-01T18:13:00.672Z,18.13
2018-12-01T18:15:29.352Z,16.77
2018-12-01T18:17:58.833Z,16.10
2018-12-01T18:20:27.614Z,16.40
2018-12-01T18:22:58.754Z,16.97
2018-12-01T18:25:28.762Z,17.20
2018-12-01T18:27:58.312Z,17.50
2018-12-01T18:30:30.383Z,17.90
2018-12-01T18:33:00.977Z,17.03
2018-12-01T18:35:29.834Z,17.37
2018-12-01T18:37:58.469Z,16.87
2018-12-01T18:40:27.110Z,16.30
2018-12-01T18:42:55.790Z,16.57
2018-12-01T18:45:24.442Z,17.13
2018-12-01T18:47:53.147Z,16.07
2018-12-01T18:50:21.840Z,16.13
2018-12-01T18:53:00.091Z,16.70
2018-12-01T18:55:31.774Z,17.40
2018-12-01T18:58:00.600Z,16.30
2018-12-01T19:01:07.737Z,17.53
2018-12-01T19:03:37.128Z,16.97
2018-12-01T19:06:21.287Z,18.17
2018-12-01T19:08:49.977Z,18.13
2018-12-01T19:11:19.467Z,17.60
2018-12-01T19:13:48.079Z,20.10
2018-12-01T19:16:16.880Z,18.57
2018-12-01T19:18:45.522Z,20.27
2018-12-01T19:21:14.285Z,21.37
2018-12-01T19:23:43.071Z,21.77
2018-12-01T19:26:11.880Z,23.37
2018-12-01T19:28:40.625Z,25.20
2018-12-01T19:31:09.265Z,24.07
2018-12-01T19:33:38.601Z,24.53
2018-12-01T19:36:07.281Z,25.50
2018-12-01T19:38:35.872Z,25.30
2018-12-01T19:41:12.238Z,26.70
2018-12-01T19:43:40.943Z,27.53
2018-12-01T19:46:09.517Z,28.00
2018-12-01T19:48:39.170Z,25.47
2018-12-01T19:51:08.817Z,26.47
2018-12-01T19:53:37.553Z,27.43
2018-12-01T19:56:06.892Z,25.77
2018-12-01T19:58:35.519Z,25.23
2018-12-01T20:01:04.291Z,26.63
2018-12-01T20:03:33.006Z,26.67
2018-12-01T20:06:02.375Z,26.13
2018-12-01T20:08:31.123Z,27.70
2018-12-01T20:11:02.377Z,25.20
2018-12-01T20:13:43.889Z,25.50
2018-12-01T20:16:19.644Z,26.63
2018-12-01T20:18:48.316Z,25.43
2018-12-01T20:21:16.949Z,24.53
2018-12-01T20:23:45.775Z,25.63
2018-12-01T20:26:14.525Z,25.97
2018-12-01T20:28:43.779Z,24.77
2018-12-01T20:31:12.419Z,24.33
2018-12-01T20:33:41.014Z,26.10
2018-12-01T20:36:16.507Z,26.50
2018-12-01T20:38:49.292Z,26.50
2018-12-01T20:41:17.904Z,26.67
2018-12-01T20:43:46.669Z,27.23
2018-12-01T20:46:15.317Z,28.57
2018-12-01T20:48:43.887Z,29.13
2018-12-01T20:51:13.334Z,27.63
2018-12-01T20:53:42.160Z,29.53
2018-12-01T20:56:13.698Z,29.27
2018-12-01T20:58:42.358Z,28.03
2018-12-01T21:01:12.419Z,31.27
2018-12-01T21:03:41.145Z,29.30
2018-12-01T21:06:09.929Z,29.80
2018-12-01T21:08:38.718Z,28.57
2018-12-01T21:11:11.716Z,27.67
2018-12-01T21:13:40.402Z,27.77
2018-12-01T21:16:09.129Z,27.63
2018-12-01T21:18:37.863Z,29.50
2018-12-01T21:21:06.598Z,27.97
2018-12-01T21:23:35.667Z,26.93
2018-12-01T21:26:04.801Z,25.80
2018-12-01T21:28:33.984Z,26.50
2018-12-01T21:31:02.828Z,27.57
2018-12-01T21:33:33.636Z,26.73
2018-12-01T21:36:02.352Z,26.33
2018-12-01T21:38:31.198Z,26.60
2018-12-01T21:42:02.897Z,26.40
2018-12-01T21:44:31.597Z,24.23
2018-12-01T21:47:00.780Z,25.33
2018-12-01T21:49:29.516Z,25.20
2018-12-01T21:51:58.200Z,25.27
2018-12-01T21:54:26.893Z,25.57
2018-12-01T21:56:55.555Z,24.87
2018-12-01T21:59:24.199Z,25.63
2018-12-01T22:01:52.814Z,24.53
2018-12-01T22:04:21.495Z,26.30
2018-12-01T22:06:50.098Z,24.93
2018-12-01T22:09:18.884Z,26.23
2018-12-01T22:11:47.589Z,25.37
2018-12-01T22:14:16.261Z,25.67
2018-12-01T22:16:45.514Z,23.37
2018-12-01T22:19:14.145Z,25.37
2018-12-01T22:21:42.953Z,23.57
2018-12-01T22:24:11.665Z,24.63
2018-12-01T22:26:40.380Z,25.47
2018-12-01T22:29:09.806Z,24.27
2018-12-01T22:31:38.387Z,23.03
2018-12-01T22:34:07.140Z,22.80
2018-12-01T22:36:35.832Z,23.33
2018-12-01T22:39:05.887Z,23.40
2018-12-01T22:41:34.458Z,25.73
2018-12-01T22:44:03.110Z,25.00
2018-12-01T22:46:31.841Z,24.53
2018-12-01T22:49:00.515Z,27.17
2018-12-01T22:51:29.195Z,26.27
2018-12-01T22:53:57.892Z,27.37
2018-12-01T22:56:28.863Z,25.07
2018-12-01T22:58:55.202Z,27.00
2018-12-01T23:01:23.888Z,25.70
2018-12-01T23:03:52.676Z,25.93
2018-12-01T23:06:22.048Z,25.80
2018-12-01T23:08:51.176Z,27.67
2018-12-01T23:11:19.977Z,27.27
2018-12-01T23:13:49.078Z,32.63
2018-12-01T23:16:17.671Z,25.77
2018-12-01T23:18:46.321Z,26.67
2018-12-01T23:21:20.470Z,27.23
2018-12-01T23:23:44.312Z,27.77
2018-12-01T23:26:12.972Z,25.80
2018-12-01T23:28:42.700Z,25.13
2018-12-01T23:31:11.363Z,26.40
2018-12-01T23:33:39.998Z,25.20
2018-12-01T23:36:08.638Z,25.90
2018-12-01T23:38:37.275Z,25.93
2018-12-01T23:41:06.291Z,26.70
2018-12-01T23:43:34.895Z,28.80
2018-12-01T23:46:03.571Z,28.13
2018-12-01T23:48:33.087Z,26.37
2018-12-01T23:51:01.702Z,27.03
2018-12-01T23:53:30.322Z,27.20
2018-12-01T23:55:58.960Z,25.97
2018-12-01T23:58:27.611Z,26.17
